Time,TemperatureF,DewpointF,PressureIn,WindDirection,WindDirectionDegrees,WindSpeedMPH,WindSpeedGustMPH,Humidity,HourlyPrecipIn,Conditions,Clouds,dailyrainin,SolarRadiationWatts/m^2,SoftwareType,DateUTC
2013-01-25 00:03:00,29.0,6.0,-100.00,NE,35,6.0,12.0,37,0.00,,,0.00,0.000000,,2013-01-25 05:03:00,
2013-01-25 00:32:00,29.0,7.0,-100.00,NW,307,4.0,15.0,39,0.00,,,0.00,0.000000,,2013-01-25 05:32:00,
2013-01-25 00:43:00,29.0,7.0,-100.00,NW,307,4.0,15.0,39,0.00,,,0.00,0.000000,,2013-01-25 05:43:00,
2013-01-25 00:52:00,29.0,7.0,-100.00,NW,307,4.0,15.0,39,0.00,,,0.00,0.000000,,2013-01-25 05:52:00,
2013-01-25 01:02:00,29.0,7.0,-100.00,NW,307,4.0,15.0,39,0.00,,,0.00,0.000000,,2013-01-25 06:02:00,
2013-01-25 01:32:00,32.0,11.0,-100.00,SSE,156,6.0,11.0,41,0.00,,,0.00,0.000000,,2013-01-25 06:32:00,
2013-01-25 01:42:00,32.0,11.0,-100.00,SSE,156,6.0,11.0,41,0.00,,,0.00,0.000000,,2013-01-25 06:42:00,
2013-01-25 01:52:00,32.0,11.0,-100.00,SSE,156,6.0,11.0,41,0.00,,,0.00,0.000000,,2013-01-25 06:52:00,
2013-01-25 02:02:00,32.0,11.0,-100.00,SSE,156,6.0,11.0,41,0.00,,,0.00,0.000000,,2013-01-25 07:02:00,
2013-01-25 02:32:00,34.0,12.0,-100.00,SE,132,11.0,21.0,39,0.00,,,0.00,0.000000,,2013-01-25 07:32:00,
2013-01-25 02:42:00,34.0,12.0,-100.00,SE,132,11.0,21.0,39,0.00,,,0.00,0.000000,,2013-01-25 07:42:00,
2013-01-25 02:52:00,34.0,12.0,-100.00,SE,132,11.0,21.0,39,0.00,,,0.00,0.000000,,2013-01-25 07:52:00,
2013-01-25 03:02:00,34.0,12.0,-100.00,SE,132,11.0,21.0,39,0.00,,,0.00,0.000000,,2013-01-25 08:02:00,
2013-01-25 03:32:00,34.0,14.0,-100.00,SE,126,12.0,19.0,43,0.00,,,0.00,0.000000,,2013-01-25 08:32:00,
2013-01-25 03:42:00,34.0,14.0,-100.00,SE,126,12.0,19.0,43,0.00,,,0.00,0.000000,,2013-01-25 08:42:00,
2013-01-25 03:52:00,34.0,14.0,-100.00,SE,126,12.0,19.0,43,0.00,,,0.00,0.000000,,2013-01-25 08:52:00,
2013-01-25 04:02:00,34.0,14.0,-100.00,SE,126,12.0,19.0,43,0.00,,,0.00,0.000000,,2013-01-25 09:02:00,
2013-01-25 04:32:00,33.0,13.0,-100.00,SE,135,13.0,23.0,44,0.00,,,0.00,0.000000,,2013-01-25 09:32:00,
2013-01-25 04:42:00,33.0,13.0,-100.00,SE,135,13.0,23.0,44,0.00,,,0.00,0.000000,,2013-01-25 09:42:00,
2013-01-25 04:52:00,33.0,13.0,-100.00,SE,135,13.0,23.0,44,0.00,,,0.00,0.000000,,2013-01-25 09:52:00,
2013-01-25 05:02:00,33.0,13.0,-100.00,SE,135,13.0,23.0,44,0.00,,,0.00,0.000000,,2013-01-25 10:02:00,
2013-01-25 05:32:00,33.0,14.0,-100.00,SSE,158,11.0,17.0,45,0.00,,,0.00,0.000000,,2013-01-25 10:32:00,
2013-01-25 05:42:00,33.0,14.0,-100.00,SSE,158,11.0,17.0,45,0.00,,,0.00,0.000000,,2013-01-25 10:42:00,
2013-01-25 05:52:00,33.0,14.0,-100.00,SSE,158,11.0,17.0,45,0.00,,,0.00,0.000000,,2013-01-25 10:52:00,
2013-01-25 06:03:00,33.0,14.0,-100.00,SSE,158,11.0,17.0,45,0.00,,,0.00,0.000000,,2013-01-25 11:03:00,
2013-01-25 06:33:00,32.0,13.0,-100.00,SSE,162,11.0,22.0,44,0.00,,,0.00,0.000000,,2013-01-25 11:33:00,
2013-01-25 06:42:00,32.0,13.0,-100.00,SSE,162,11.0,22.0,44,0.00,,,0.00,0.000000,,2013-01-25 11:42:00,
2013-01-25 06:52:00,32.0,13.0,-100.00,SSE,162,11.0,22.0,44,0.00,,,0.00,0.000000,,2013-01-25 11:52:00,
2013-01-25 07:03:00,32.0,13.0,-100.00,SSE,162,11.0,22.0,44,0.00,,,0.00,0.000000,,2013-01-25 12:03:00,
2013-01-25 07:33:00,31.0,13.0,-100.00,SSE,155,13.0,24.0,46,0.00,,,0.00,0.000000,,2013-01-25 12:33:00,
2013-01-25 07:42:00,31.0,13.0,-100.00,SSE,155,13.0,24.0,46,0.00,,,0.00,0.000000,,2013-01-25 12:42:00,
2013-01-25 07:53:00,31.0,13.0,-100.00,SSE,155,13.0,24.0,46,0.00,,,0.00,0.000000,,2013-01-25 12:53:00,
2013-01-25 08:03:00,31.0,13.0,-100.00,SSE,155,13.0,24.0,46,0.00,,,0.00,0.000000,,2013-01-25 13:03:00,
2013-01-25 08:33:00,30.0,18.0,-100.00,SSE,155,12.0,21.0,61,0.00,,,0.00,0.000000,,2013-01-25 13:33:00,
2013-01-25 08:43:00,30.0,18.0,-100.00,SSE,155,12.0,21.0,61,0.00,,,0.00,0.000000,,2013-01-25 13:43:00,
2013-01-25 08:53:00,30.0,18.0,-100.00,SSE,155,12.0,21.0,61,0.00,,,0.00,0.000000,,2013-01-25 13:53:00,
2013-01-25 09:03:00,30.0,18.0,-100.00,SSE,155,12.0,21.0,61,0.00,,,0.00,0.000000,,2013-01-25 14:03:00,
2013-01-25 09:33:00,30.0,17.0,-100.00,SSE,159,12.0,20.0,59,0.00,,,0.00,6.000000,,2013-01-25 14:33:00,
2013-01-25 09:42:00,30.0,17.0,-100.00,SSE,159,12.0,20.0,59,0.00,,,0.00,6.000000,,2013-01-25 14:42:00,
2013-01-25 09:53:00,30.0,17.0,-100.00,SSE,159,12.0,20.0,59,0.00,,,0.00,6.000000,,2013-01-25 14:53:00,
2013-01-25 10:03:00,30.0,17.0,-100.00,SSE,159,12.0,20.0,59,0.00,,,0.00,6.000000,,2013-01-25 15:03:00,
2013-01-25 10:33:00,30.0,20.0,-100.00,SSE,163,13.0,21.0,67,0.00,,,0.00,17.000000,,2013-01-25 15:33:00,
2013-01-25 10:43:00,30.0,20.0,-100.00,SSE,163,13.0,21.0,67,0.00,,,0.00,17.000000,,2013-01-25 15:43:00,
2013-01-25 10:53:00,30.0,20.0,-100.00,SSE,163,13.0,21.0,67,0.00,,,0.00,17.000000,,2013-01-25 15:53:00,
2013-01-25 11:03:00,30.0,20.0,-100.00,SSE,163,13.0,21.0,67,0.00,,,0.00,17.000000,,2013-01-25 16:03:00,
2013-01-25 11:33:00,31.0,20.0,-100.00,SSE,160,12.0,19.0,62,0.00,,,0.00,23.000000,,2013-01-25 16:33:00,
2013-01-25 11:43:00,31.0,20.0,-100.00,SSE,160,12.0,19.0,62,0.00,,,0.00,23.000000,,2013-01-25 16:43:00,
2013-01-25 11:53:00,31.0,20.0,-100.00,SSE,160,12.0,19.0,62,0.00,,,0.00,23.000000,,2013-01-25 16:53:00,
2013-01-25 12:03:00,31.0,20.0,-100.00,SSE,160,12.0,19.0,62,0.00,,,0.00,23.000000,,2013-01-25 17:03:00,
2013-01-25 12:33:00,32.0,20.0,-100.00,SSE,165,11.0,21.0,60,0.00,,,0.00,20.000000,,2013-01-25 17:33:00,
2013-01-25 12:43:00,32.0,20.0,-100.00,SSE,165,11.0,21.0,60,0.00,,,0.00,20.000000,,2013-01-25 17:43:00,
2013-01-25 12:53:00,32.0,20.0,-100.00,SSE,165,11.0,21.0,60,0.00,,,0.00,20.000000,,2013-01-25 17:53:00,
2013-01-25 13:03:00,32.0,20.0,-100.00,SSE,165,11.0,21.0,60,0.00,,,0.00,20.000000,,2013-01-25 18:03:00,
2013-01-25 13:33:00,30.0,25.0,-100.00,WNW,286,4.0,19.0,80,0.00,,,0.00,9.000000,,2013-01-25 18:33:00,
2013-01-25 13:43:00,30.0,25.0,-100.00,WNW,286,4.0,19.0,80,0.00,,,0.00,9.000000,,2013-01-25 18:43:00,
2013-01-25 13:53:00,30.0,25.0,-100.00,WNW,286,4.0,19.0,80,0.00,,,0.00,9.000000,,2013-01-25 18:53:00,
2013-01-25 14:03:00,30.0,25.0,-100.00,WNW,286,4.0,19.0,80,0.00,,,0.00,9.000000,,2013-01-25 19:03:00,
2013-01-25 14:33:00,30.0,28.0,-100.00,SSE,148,9.0,14.0,94,0.02,,,0.02,22.000000,,2013-01-25 19:33:00,
2013-01-25 14:42:00,30.0,28.0,-100.00,SSE,148,9.0,14.0,94,0.02,,,0.02,22.000000,,2013-01-25 19:42:00,
2013-01-25 14:53:00,30.0,28.0,-100.00,SSE,148,9.0,14.0,94,0.02,,,0.02,22.000000,,2013-01-25 19:53:00,
2013-01-25 15:03:00,30.0,28.0,-100.00,SSE,148,9.0,14.0,94,0.02,,,0.02,22.000000,,2013-01-25 20:03:00,
2013-01-25 15:33:00,31.0,31.0,-100.00,SSE,151,7.0,9.0,100,0.00,,,0.02,20.000000,,2013-01-25 20:33:00,
2013-01-25 15:43:00,31.0,31.0,-100.00,SSE,151,7.0,9.0,100,0.00,,,0.02,20.000000,,2013-01-25 20:43:00,
2013-01-25 15:53:00,31.0,31.0,-100.00,SSE,151,7.0,9.0,100,0.00,,,0.02,20.000000,,2013-01-25 20:53:00,
2013-01-25 16:02:00,31.0,31.0,-100.00,SSE,151,7.0,9.0,100,0.00,,,0.02,20.000000,,2013-01-25 21:02:00,
2013-01-25 16:33:00,32.0,32.0,-100.00,WSW,251,3.0,11.0,99,0.01,,,0.03,18.000000,,2013-01-25 21:33:00,
2013-01-25 16:43:00,32.0,32.0,-100.00,WSW,251,3.0,11.0,99,0.01,,,0.03,18.000000,,2013-01-25 21:43:00,
2013-01-25 16:52:00,32.0,32.0,-100.00,WSW,251,3.0,11.0,99,0.01,,,0.03,18.000000,,2013-01-25 21:52:00,
2013-01-25 17:03:00,32.0,32.0,-100.00,WSW,251,3.0,11.0,99,0.01,,,0.03,18.000000,,2013-01-25 22:03:00,
2013-01-25 17:33:00,32.0,32.0,-100.00,SSE,167,1.0,4.0,99,0.02,,,0.05,6.000000,,2013-01-25 22:33:00,
2013-01-25 17:42:00,32.0,32.0,-100.00,SSE,167,1.0,4.0,99,0.02,,,0.05,6.000000,,2013-01-25 22:42:00,
2013-01-25 17:53:00,32.0,32.0,-100.00,SSE,167,1.0,4.0,99,0.02,,,0.05,6.000000,,2013-01-25 22:53:00,
2013-01-25 18:02:00,32.0,32.0,-100.00,SSE,167,1.0,4.0,99,0.02,,,0.05,6.000000,,2013-01-25 23:02:00,
2013-01-25 18:32:00,31.0,31.0,-100.00,NE,56,4.0,6.0,100,0.00,,,0.05,1.000000,,2013-01-25 23:32:00,
2013-01-25 18:42:00,31.0,31.0,-100.00,NE,56,4.0,6.0,100,0.00,,,0.05,1.000000,,2013-01-25 23:42:00,
2013-01-25 18:53:00,31.0,31.0,-100.00,NE,56,4.0,6.0,100,0.00,,,0.05,1.000000,,2013-01-25 23:53:00,
2013-01-25 19:02:00,31.0,31.0,-100.00,NE,56,4.0,6.0,100,0.00,,,0.05,1.000000,,2013-01-26 00:02:00,
2013-01-25 19:33:00,31.0,31.0,-100.00,East,90,5.0,7.0,100,0.01,,,0.06,0.000000,,2013-01-26 00:33:00,
2013-01-25 19:42:00,31.0,31.0,-100.00,East,90,5.0,7.0,100,0.01,,,0.06,0.000000,,2013-01-26 00:42:00,
2013-01-25 19:53:00,31.0,31.0,-100.00,East,90,5.0,7.0,100,0.01,,,0.06,0.000000,,2013-01-26 00:53:00,
2013-01-25 20:02:00,31.0,31.0,-100.00,East,90,5.0,7.0,100,0.01,,,0.06,0.000000,,2013-01-26 01:02:00,
2013-01-25 20:32:00,32.0,32.0,-100.00,SE,145,5.0,8.0,100,0.00,,,0.06,0.000000,,2013-01-26 01:32:00,
2013-01-25 20:42:00,32.0,32.0,-100.00,SE,145,5.0,8.0,100,0.00,,,0.06,0.000000,,2013-01-26 01:42:00,
2013-01-25 20:52:00,32.0,32.0,-100.00,SE,145,5.0,8.0,100,0.00,,,0.06,0.000000,,2013-01-26 01:52:00,
2013-01-25 21:02:00,32.0,32.0,-100.00,SE,145,5.0,8.0,100,0.00,,,0.06,0.000000,,2013-01-26 02:02:00,
2013-01-25 21:32:00,32.0,32.0,-100.00,WNW,303,4.0,6.0,100,0.00,,,0.06,0.000000,,2013-01-26 02:32:00,
2013-01-25 21:42:00,32.0,32.0,-100.00,WNW,303,4.0,6.0,100,0.00,,,0.06,0.000000,,2013-01-26 02:42:00,
2013-01-25 21:52:00,32.0,32.0,-100.00,WNW,303,4.0,6.0,100,0.00,,,0.06,0.000000,,2013-01-26 02:52:00,
2013-01-25 22:02:00,32.0,32.0,-100.00,WNW,303,4.0,6.0,100,0.00,,,0.06,0.000000,,2013-01-26 03:02:00,
2013-01-25 22:32:00,33.0,33.0,-100.00,SSE,164,1.0,6.0,100,0.00,,,0.06,0.000000,,2013-01-26 03:32:00,
2013-01-25 22:43:00,33.0,33.0,-100.00,SSE,164,1.0,6.0,100,0.00,,,0.06,0.000000,,2013-01-26 03:43:00,
2013-01-25 22:52:00,33.0,33.0,-100.00,SSE,164,1.0,6.0,100,0.00,,,0.06,0.000000,,2013-01-26 03:52:00,
2013-01-25 23:02:00,33.0,33.0,-100.00,SSE,164,1.0,6.0,100,0.00,,,0.06,0.000000,,2013-01-26 04:02:00,
2013-01-25 23:32:00,34.0,34.0,-100.00,WNW,297,3.0,4.0,100,0.00,,,0.06,0.000000,,2013-01-26 04:32:00,
2013-01-25 23:43:00,34.0,34.0,-100.00,WNW,297,3.0,4.0,100,0.00,,,0.06,0.000000,,2013-01-26 04:43:00,
2013-01-25 23:52:00,34.0,34.0,-100.00,WNW,297,3.0,4.0,100,0.00,,,0.06,0.000000,,2013-01-26 04:52:00,